createdAt,value
2018-10-18T00:00:50.675Z,99.90
2018-10-18T00:03:19.585Z,99.90
2018-10-18T00:05:48.273Z,99.90
2018-10-18T00:08:17.877Z,99.90
2018-10-18T00:10:46.800Z,99.90
2018-10-18T00:13:16.404Z,99.90
2018-10-18T00:15:46.184Z,99.90
2018-10-18T00:18:15.638Z,99.90
2018-10-18T00:20:44.284Z,99.90
2018-10-18T00:23:13.204Z,99.90
2018-10-18T00:25:41.897Z,99.90
2018-10-18T00:28:10.684Z,99.90
2018-10-18T00:30:40.469Z,99.90
2018-10-18T00:33:09.057Z,99.90
2018-10-18T00:35:37.760Z,99.90
2018-10-18T00:38:06.234Z,99.90
2018-10-18T00:40:34.461Z,99.90
2018-10-18T00:43:03.628Z,99.90
2018-10-18T00:45:32.128Z,99.90
2018-10-18T00:48:01.210Z,99.90
2018-10-18T00:50:29.435Z,99.90
2018-10-18T00:52:58.016Z,99.90
2018-10-18T00:55:26.386Z,99.90
2018-10-18T00:57:55.662Z,99.90
2018-10-18T01:00:24.241Z,99.90
2018-10-18T01:02:52.540Z,99.90
2018-10-18T02:39:38.297Z,99.90
2018-10-18T02:42:07.975Z,99.90
2018-10-18T02:44:36.427Z,99.90
2018-10-18T02:47:05.119Z,99.90
2018-10-18T02:49:33.920Z,99.90
2018-10-18T02:52:02.276Z,99.90
2018-10-18T02:54:31.131Z,99.90
2018-10-18T02:56:59.649Z,99.90
2018-10-18T02:59:28.855Z,99.90
2018-10-18T03:01:57.119Z,99.90
2018-10-18T03:04:26.727Z,99.90
2018-10-18T03:06:55.300Z,99.90
2018-10-18T03:09:23.543Z,99.90
2018-10-18T03:11:51.985Z,99.90
2018-10-18T03:14:20.318Z,99.90
2018-10-18T03:16:48.923Z,99.90
2018-10-18T03:19:17.583Z,99.90
2018-10-18T03:21:45.838Z,99.90
2018-10-18T03:24:14.770Z,99.90
2018-10-18T03:26:43.307Z,99.90
2018-10-18T03:29:11.547Z,99.90
2018-10-18T03:31:40.128Z,99.90
2018-10-18T03:34:08.611Z,99.90
2018-10-18T03:36:37.125Z,99.90
2018-10-18T03:39:08.365Z,99.90
2018-10-18T03:41:36.693Z,99.90
2018-10-18T03:44:05.478Z,99.90
2018-10-18T03:46:34.119Z,99.90
2018-10-18T03:49:04.556Z,99.90
2018-10-18T03:51:33.081Z,99.90
2018-10-18T03:54:01.603Z,99.90
2018-10-18T03:56:30.114Z,99.90
2018-10-18T03:58:58.458Z,99.90
2018-10-18T04:01:26.923Z,99.90
2018-10-18T04:03:55.575Z,99.90
2018-10-18T04:06:24.095Z,99.90
2018-10-18T04:08:52.614Z,99.90
2018-10-18T04:11:20.899Z,99.90
2018-10-18T04:13:49.242Z,99.90
2018-10-18T04:16:18.607Z,99.90
2018-10-18T04:18:47.058Z,99.90
2018-10-18T04:21:15.275Z,99.90
2018-10-18T04:23:43.554Z,99.90
2018-10-18T04:26:11.793Z,99.90
2018-10-18T04:28:41.037Z,99.90
2018-10-18T04:31:09.454Z,99.90
2018-10-18T04:33:37.660Z,99.90
2018-10-18T04:36:06.099Z,99.90
2018-10-18T04:38:34.446Z,99.90
2018-10-18T04:41:02.679Z,99.90
2018-10-18T04:43:31.140Z,99.90
2018-10-18T04:45:59.760Z,99.90
2018-10-18T04:48:28.268Z,99.90
2018-10-18T04:50:56.823Z,99.90
2018-10-18T04:53:25.151Z,99.90
2018-10-18T04:55:53.806Z,99.90
2018-10-18T04:58:22.331Z,99.90
2018-10-18T05:00:51.714Z,99.90
2018-10-18T05:03:20.179Z,99.90
2018-10-18T05:05:52.796Z,99.90
2018-10-18T05:08:22.775Z,99.90
2018-10-18T05:10:51.058Z,99.90
2018-10-18T05:13:19.789Z,99.90
2018-10-18T05:15:48.244Z,99.90
2018-10-18T05:18:16.794Z,99.90
2018-10-18T05:20:45.123Z,99.90
2018-10-18T05:23:13.362Z,99.90
2018-10-18T05:25:41.881Z,99.90
2018-10-18T05:28:10.112Z,99.90
2018-10-18T05:30:38.463Z,99.90
2018-10-18T05:33:06.739Z,99.90
2018-10-18T05:35:35.240Z,99.90
2018-10-18T05:38:03.593Z,99.90
2018-10-18T05:40:31.981Z,99.90
2018-10-18T05:43:00.383Z,99.90
2018-10-18T05:45:28.583Z,99.90
2018-10-18T05:47:56.830Z,99.90
2018-10-18T05:50:25.050Z,99.90
2018-10-18T05:52:53.369Z,99.90
2018-10-18T05:55:21.547Z,99.90
2018-10-18T05:57:49.998Z,99.90
2018-10-18T06:00:18.961Z,99.90
2018-10-18T06:02:47.554Z,99.90
2018-10-18T06:05:17.475Z,99.90
2018-10-18T06:07:45.970Z,99.90
2018-10-18T06:10:26.389Z,99.90
2018-10-18T06:12:54.825Z,99.90
2018-10-18T06:15:23.511Z,99.90
2018-10-18T06:17:51.711Z,99.90
2018-10-18T06:20:20.726Z,99.90
2018-10-18T06:22:49.169Z,99.90
2018-10-18T06:25:18.395Z,99.90
2018-10-18T06:27:47.250Z,99.90
2018-10-18T06:30:16.487Z,99.90
2018-10-18T06:32:45.189Z,99.90
2018-10-18T06:35:15.129Z,99.90
2018-10-18T06:37:43.449Z,99.90
2018-10-18T06:40:16.560Z,99.90
2018-10-18T06:42:44.796Z,99.90
2018-10-18T06:45:15.599Z,99.90
2018-10-18T06:47:44.377Z,99.90
2018-10-18T06:50:13.850Z,99.90
2018-10-18T06:52:42.097Z,99.90
2018-10-18T06:55:10.587Z,99.90
2018-10-18T06:57:39.522Z,99.90
2018-10-18T07:00:12.336Z,99.90
2018-10-18T07:02:40.974Z,99.90
2018-10-18T07:05:10.887Z,99.90
2018-10-18T07:07:39.175Z,99.90
2018-10-18T07:10:07.830Z,99.90
2018-10-18T07:12:36.911Z,99.90
2018-10-18T07:15:06.383Z,99.90
2018-10-18T07:17:34.671Z,99.90
2018-10-18T07:20:03.018Z,99.90
2018-10-18T07:22:31.199Z,99.90
2018-10-18T07:24:59.491Z,99.90
2018-10-18T07:27:27.674Z,99.90
2018-10-18T07:29:56.150Z,99.90
2018-10-18T07:32:24.820Z,99.90
2018-10-18T07:34:53.024Z,99.90
2018-10-18T07:37:21.858Z,99.90
2018-10-18T07:39:51.219Z,99.90
2018-10-18T07:42:19.674Z,99.90
2018-10-18T07:44:48.030Z,99.90
2018-10-18T07:47:16.460Z,99.90
2018-10-18T07:49:44.886Z,99.90
2018-10-18T07:52:13.120Z,99.90
2018-10-18T07:54:41.424Z,99.90
2018-10-18T07:57:09.976Z,99.90
2018-10-18T07:59:38.207Z,99.90
2018-10-18T08:02:06.726Z,99.90
2018-10-18T08:04:35.190Z,99.90
2018-10-18T08:07:04.003Z,99.90
2018-10-18T08:09:32.303Z,99.90
2018-10-18T08:12:00.531Z,99.90
2018-10-18T08:14:29.031Z,99.90
2018-10-18T08:16:57.299Z,99.90
2018-10-18T08:19:25.572Z,99.90
2018-10-18T08:21:53.787Z,99.90
2018-10-18T08:24:21.988Z,99.90
2018-10-18T08:26:50.253Z,99.90
2018-10-18T08:29:18.622Z,99.90
2018-10-18T08:31:47.099Z,99.90
2018-10-18T08:34:15.335Z,99.90
2018-10-18T08:36:43.699Z,99.90
2018-10-18T08:39:12.293Z,99.90
2018-10-18T08:41:40.675Z,99.90
2018-10-18T08:44:08.978Z,99.90
2018-10-18T08:46:37.195Z,99.90
2018-10-18T08:49:05.839Z,99.90
2018-10-18T08:51:34.106Z,99.90
2018-10-18T08:54:02.396Z,99.90
2018-10-18T08:56:30.892Z,99.90
2018-10-18T08:58:59.102Z,99.90
2018-10-18T09:01:27.363Z,99.90
2018-10-18T09:03:55.779Z,99.90
2018-10-18T09:06:24.157Z,99.90
2018-10-18T09:08:52.375Z,99.90
2018-10-18T09:11:20.551Z,99.90
2018-10-18T09:13:48.999Z,99.90
2018-10-18T09:16:17.335Z,99.90
2018-10-18T09:18:45.790Z,99.90
2018-10-18T09:21:13.979Z,99.90
2018-10-18T09:23:42.243Z,99.90
2018-10-18T09:26:10.511Z,99.90
2018-10-18T09:28:38.858Z,99.90
2018-10-18T09:31:07.130Z,99.90
2018-10-18T09:33:35.339Z,99.90
2018-10-18T09:36:03.673Z,99.90
2018-10-18T09:38:32.829Z,99.90
2018-10-18T09:41:01.001Z,99.90
2018-10-18T09:43:29.246Z,99.90
2018-10-18T09:45:57.757Z,99.90
2018-10-18T09:48:26.099Z,99.90
2018-10-18T09:50:54.348Z,99.90
2018-10-18T09:53:22.748Z,99.90
2018-10-18T09:55:51.093Z,99.90
2018-10-18T09:58:19.371Z,99.90
2018-10-18T10:00:53.119Z,99.90
2018-10-18T10:03:22.252Z,99.90
2018-10-18T10:05:50.523Z,99.90
2018-10-18T10:08:18.714Z,99.90
2018-10-18T10:10:47.035Z,99.90
2018-10-18T10:13:15.554Z,99.90
2018-10-18T10:15:43.751Z,99.90
2018-10-18T10:18:12.220Z,99.90
2018-10-18T10:20:40.515Z,99.90
2018-10-18T10:23:08.767Z,99.90
2018-10-18T10:25:37.112Z,99.80
2018-10-18T10:28:05.349Z,99.90
2018-10-18T10:30:33.682Z,99.00
2018-10-18T10:33:02.068Z,98.70
2018-10-18T10:35:30.235Z,99.20
2018-10-18T10:37:58.488Z,99.40
2018-10-18T10:40:26.671Z,99.60
2018-10-18T10:42:54.964Z,99.20
2018-10-18T10:45:23.470Z,98.90
2018-10-18T10:47:51.982Z,98.90
2018-10-18T10:50:20.269Z,98.60
2018-10-18T10:52:48.449Z,98.40
2018-10-18T10:55:16.788Z,98.60
2018-10-18T10:57:45.002Z,98.70
2018-10-18T11:00:15.798Z,98.60
2018-10-18T11:02:43.951Z,98.50
2018-10-18T11:05:12.927Z,98.30
2018-10-18T11:07:41.195Z,98.20
2018-10-18T11:10:09.448Z,97.70
2018-10-18T11:12:37.744Z,97.70
2018-10-18T11:15:06.085Z,98.00
2018-10-18T11:17:34.288Z,97.50
2018-10-18T11:20:02.866Z,97.10
2018-10-18T11:22:31.083Z,96.90
2018-10-18T11:24:59.321Z,96.80
2018-10-18T11:27:27.519Z,96.70
2018-10-18T11:29:55.931Z,96.60
2018-10-18T11:32:24.202Z,96.40
2018-10-18T11:34:52.560Z,96.60
2018-10-18T11:37:21.007Z,96.50
2018-10-18T11:39:49.453Z,96.50
2018-10-18T11:42:17.948Z,96.40
2018-10-18T11:44:46.191Z,96.40
2018-10-18T11:47:14.422Z,96.60
2018-10-18T11:49:42.776Z,96.10
2018-10-18T11:52:11.374Z,95.50
2018-10-18T11:54:39.624Z,95.10
2018-10-18T11:57:08.060Z,95.30
2018-10-18T11:59:36.334Z,95.70
2018-10-18T12:02:05.138Z,95.40
2018-10-18T12:04:33.436Z,95.30
2018-10-18T12:07:01.700Z,95.00
2018-10-18T12:09:29.942Z,94.90
2018-10-18T12:11:58.248Z,95.10
2018-10-18T12:14:26.539Z,94.80
2018-10-18T12:16:54.878Z,94.90
2018-10-18T12:19:23.163Z,94.90
2018-10-18T12:21:51.513Z,94.70
2018-10-18T12:24:19.851Z,94.60
2018-10-18T12:26:48.306Z,94.20
2018-10-18T12:29:16.615Z,94.20
2018-10-18T12:31:44.851Z,94.30
2018-10-18T12:34:13.084Z,94.70
2018-10-18T12:36:41.482Z,94.80
2018-10-18T12:39:10.251Z,94.70
2018-10-18T12:41:38.600Z,94.80
2018-10-18T12:44:06.782Z,95.20
2018-10-18T12:46:35.022Z,95.00
2018-10-18T12:49:03.230Z,95.10
2018-10-18T12:51:31.428Z,95.00
2018-10-18T12:53:59.965Z,95.20
2018-10-18T12:56:28.243Z,95.20
2018-10-18T12:58:56.497Z,95.20
2018-10-18T13:01:24.675Z,95.10
2018-10-18T13:03:53.997Z,95.00
2018-10-18T13:06:22.232Z,95.00
2018-10-18T13:08:50.510Z,95.00
2018-10-18T13:11:18.735Z,94.80
2018-10-18T13:13:47.391Z,94.70
2018-10-18T13:16:15.666Z,95.00
2018-10-18T13:18:43.958Z,94.90
2018-10-18T13:21:12.423Z,95.10
2018-10-18T13:23:40.732Z,95.20
2018-10-18T13:26:08.987Z,94.80
2018-10-18T13:28:37.156Z,95.20
2018-10-18T13:31:05.634Z,95.00
2018-10-18T13:33:33.892Z,94.70
2018-10-18T13:36:02.223Z,94.80
2018-10-18T13:38:30.474Z,94.60
2018-10-18T13:40:58.837Z,94.70
2018-10-18T13:43:27.108Z,94.90
2018-10-18T13:45:56.539Z,94.90
2018-10-18T13:48:24.823Z,94.90
2018-10-18T13:50:53.003Z,94.70
2018-10-18T13:53:21.540Z,94.70
2018-10-18T13:55:49.796Z,94.60
2018-10-18T13:58:18.281Z,94.50
2018-10-18T14:00:46.654Z,94.20
2018-10-18T14:03:14.976Z,94.30
2018-10-18T14:05:43.652Z,94.20
2018-10-18T14:08:11.925Z,94.10
2018-10-18T14:10:40.195Z,94.20
2018-10-18T14:13:08.430Z,94.00
2018-10-18T14:15:37.255Z,94.00
2018-10-18T14:18:05.468Z,94.20
2018-10-18T14:20:33.676Z,94.30
2018-10-18T14:23:01.998Z,94.30
2018-10-18T14:25:30.470Z,94.30
2018-10-18T14:27:58.675Z,94.30
2018-10-18T14:30:27.098Z,94.40
2018-10-18T14:32:55.237Z,94.50
2018-10-18T14:35:24.276Z,94.50
2018-10-18T14:37:52.527Z,94.50
2018-10-18T14:40:20.723Z,94.70
2018-10-18T14:42:49.258Z,94.90
2018-10-18T14:45:17.682Z,94.90
2018-10-18T14:47:46.061Z,95.40
2018-10-18T14:50:14.706Z,95.00
2018-10-18T14:52:43.331Z,95.20
2018-10-18T14:55:11.664Z,95.20
2018-10-18T14:57:40.297Z,95.30
2018-10-18T15:00:10.049Z,95.30
2018-10-18T15:02:38.317Z,95.30
2018-10-18T15:05:08.188Z,95.40
2018-10-18T15:07:36.696Z,95.50
2018-10-18T15:10:06.444Z,95.50
2018-10-18T15:12:35.038Z,95.50
2018-10-18T15:15:03.187Z,95.20
2018-10-18T15:17:31.496Z,95.70
2018-10-18T15:19:59.885Z,95.80
2018-10-18T15:22:28.567Z,95.90
2018-10-18T15:24:57.018Z,96.10
2018-10-18T15:27:25.771Z,96.10
2018-10-18T15:29:54.008Z,96.10
2018-10-18T15:32:22.291Z,96.10
2018-10-18T15:34:50.611Z,96.30
2018-10-18T15:37:18.943Z,96.40
2018-10-18T15:39:47.643Z,96.60
2018-10-18T15:42:15.927Z,96.70
2018-10-18T15:44:44.227Z,96.90
2018-10-18T15:47:12.567Z,97.00
2018-10-18T15:49:40.779Z,97.00
2018-10-18T15:52:08.983Z,97.10
2018-10-18T15:54:37.300Z,97.30
2018-10-18T15:57:05.759Z,97.40
2018-10-18T15:59:34.035Z,97.50
2018-10-18T16:02:02.263Z,97.60
2018-10-18T16:04:30.780Z,97.90
2018-10-18T16:06:59.079Z,98.10
2018-10-18T16:09:27.456Z,98.20
2018-10-18T16:11:55.743Z,98.30
2018-10-18T16:14:24.043Z,98.40
2018-10-18T16:16:52.354Z,98.50
2018-10-18T16:19:20.577Z,98.60
2018-10-18T16:21:48.840Z,98.80
2018-10-18T16:24:17.078Z,99.00
2018-10-18T16:26:45.280Z,99.20
2018-10-18T16:29:13.721Z,99.30
2018-10-18T16:31:41.922Z,99.40
2018-10-18T16:34:10.119Z,99.50
2018-10-18T16:36:38.336Z,99.70
2018-10-18T16:39:08.676Z,99.80
2018-10-18T16:41:37.111Z,99.90
2018-10-18T16:44:05.659Z,99.90
2018-10-18T16:46:34.062Z,99.90
2018-10-18T16:49:02.568Z,99.90
2018-10-18T16:51:31.176Z,99.90
2018-10-18T16:53:59.951Z,99.90
2018-10-18T16:56:28.130Z,99.90
2018-10-18T16:58:56.386Z,99.90
2018-10-18T17:01:25.983Z,99.90
2018-10-18T17:03:54.331Z,99.90
2018-10-18T17:06:23.003Z,99.90
2018-10-18T17:08:51.163Z,99.90
2018-10-18T17:11:19.885Z,99.90
2018-10-18T17:13:48.623Z,99.90
2018-10-18T17:16:16.984Z,99.90
2018-10-18T17:18:45.407Z,99.90
2018-10-18T17:21:14.039Z,99.90
2018-10-18T17:23:42.639Z,99.90
2018-10-18T17:26:11.305Z,99.90
2018-10-18T17:28:40.064Z,99.90
2018-10-18T17:31:09.351Z,99.90
2018-10-18T17:33:37.599Z,99.90
2018-10-18T17:36:06.850Z,99.90
2018-10-18T17:38:35.142Z,99.90
2018-10-18T17:41:03.628Z,99.90
2018-10-18T17:43:31.948Z,99.90
2018-10-18T17:46:00.270Z,99.90
2018-10-18T17:48:28.826Z,99.90
2018-10-18T17:50:57.535Z,99.90
2018-10-18T17:53:25.809Z,99.90
2018-10-18T17:55:54.323Z,99.90
2018-10-18T17:58:23.492Z,99.90
2018-10-18T18:00:52.862Z,99.90
2018-10-18T18:03:21.559Z,99.90
2018-10-18T18:05:50.815Z,99.90
2018-10-18T18:08:20.365Z,99.90
2018-10-18T18:10:50.017Z,99.90
2018-10-18T18:13:19.330Z,99.90
2018-10-18T18:15:48.040Z,99.90
2018-10-18T18:18:16.713Z,99.90
2018-10-18T18:20:45.413Z,99.90
2018-10-18T18:23:14.098Z,99.90
2018-10-18T18:25:42.964Z,99.90
2018-10-18T18:28:12.044Z,99.90
2018-10-18T18:30:40.648Z,99.90
2018-10-18T18:33:09.580Z,99.90
2018-10-18T18:35:37.899Z,99.90
2018-10-18T18:38:06.914Z,99.90
2018-10-18T18:40:35.543Z,99.90
2018-10-18T18:43:04.663Z,99.90
2018-10-18T18:45:36.130Z,99.90
2018-10-18T18:48:05.747Z,99.90
2018-10-18T18:50:34.396Z,99.90
2018-10-18T18:53:03.190Z,99.90
2018-10-18T18:55:31.696Z,99.90
2018-10-18T18:58:00.191Z,99.90
2018-10-18T19:00:28.459Z,99.90
2018-10-18T19:02:56.784Z,99.90
2018-10-18T19:05:25.402Z,99.90
2018-10-18T19:07:54.420Z,99.90
2018-10-18T19:10:23.727Z,99.90
2018-10-18T19:12:52.756Z,99.90
2018-10-18T19:15:21.226Z,99.90
2018-10-18T19:17:49.576Z,99.90
2018-10-18T19:20:17.823Z,99.90
2018-10-18T19:22:46.342Z,99.90
2018-10-18T19:25:15.259Z,99.90
2018-10-18T19:27:43.542Z,99.90
2018-10-18T19:30:12.519Z,99.90
2018-10-18T19:32:41.201Z,99.90
2018-10-18T19:35:09.433Z,99.90
2018-10-18T19:37:38.772Z,99.90
2018-10-18T19:40:07.943Z,99.90
2018-10-18T19:42:36.178Z,99.90
2018-10-18T19:45:04.883Z,99.90
2018-10-18T19:47:34.271Z,99.90
2018-10-18T19:50:02.600Z,99.90
2018-10-18T19:52:31.376Z,99.90
2018-10-18T19:54:59.636Z,99.90
2018-10-18T19:57:29.290Z,99.90
2018-10-18T19:59:57.702Z,99.90
2018-10-18T20:02:26.179Z,99.90
2018-10-18T20:04:54.730Z,99.90
2018-10-18T20:07:23.919Z,99.90
2018-10-18T20:09:52.609Z,99.90
2018-10-18T20:12:21.142Z,99.90
2018-10-18T20:14:51.315Z,99.90
2018-10-18T20:17:19.727Z,99.90
2018-10-18T20:19:47.962Z,99.90
2018-10-18T20:22:16.262Z,99.90
2018-10-18T20:24:44.968Z,99.90
2018-10-18T20:27:13.975Z,99.90
2018-10-18T20:29:42.367Z,99.90
2018-10-18T20:32:10.689Z,99.90
2018-10-18T20:34:38.939Z,99.90
2018-10-18T20:37:07.310Z,99.90
2018-10-18T20:39:37.216Z,99.90
2018-10-18T20:42:05.754Z,99.90
2018-10-18T20:44:34.016Z,99.90
2018-10-18T20:47:02.327Z,99.90
2018-10-18T20:49:30.906Z,99.90
2018-10-18T20:52:00.227Z,99.90
2018-10-18T20:54:29.474Z,99.90
2018-10-18T20:56:57.796Z,99.90
2018-10-18T20:59:26.014Z,99.90
2018-10-18T21:01:54.604Z,99.90
2018-10-18T21:04:22.962Z,99.90
2018-10-18T21:06:51.915Z,99.90
2018-10-18T21:09:21.101Z,99.90
2018-10-18T21:11:49.451Z,99.90
2018-10-18T21:14:19.135Z,99.90
2018-10-18T21:16:47.698Z,99.90
2018-10-18T21:19:15.965Z,99.90
2018-10-18T21:21:44.352Z,99.90
2018-10-18T21:24:12.647Z,99.90
2018-10-18T21:26:41.284Z,99.90
2018-10-18T21:29:10.047Z,99.90
2018-10-18T21:31:39.268Z,99.90
2018-10-18T21:34:07.971Z,99.90
2018-10-18T21:36:36.230Z,99.90
2018-10-18T21:39:06.440Z,99.90
2018-10-18T21:41:36.353Z,99.90
2018-10-18T21:44:05.929Z,99.90
2018-10-18T21:46:34.439Z,99.90
2018-10-18T21:49:03.564Z,99.90
2018-10-18T21:51:31.778Z,99.90
2018-10-18T21:54:00.423Z,99.90
2018-10-18T21:56:28.671Z,99.90
2018-10-18T21:58:56.953Z,99.90
2018-10-18T22:01:25.346Z,99.90
2018-10-18T22:03:54.167Z,99.90
2018-10-18T22:06:22.507Z,99.90
2018-10-18T22:08:51.110Z,99.90
2018-10-18T22:11:20.334Z,99.90
2018-10-18T22:13:48.622Z,99.90
2018-10-18T22:16:17.079Z,99.90
2018-10-18T22:18:45.505Z,99.90
2018-10-18T22:21:14.166Z,99.90
2018-10-18T22:23:43.304Z,99.90
2018-10-18T22:26:13.056Z,99.90
2018-10-18T22:28:41.343Z,99.90
2018-10-18T22:31:09.991Z,99.90
2018-10-18T22:33:38.724Z,99.90
2018-10-18T22:36:08.674Z,99.90
2018-10-18T22:38:37.508Z,99.90
2018-10-18T22:41:08.324Z,99.90
2018-10-18T22:43:37.225Z,99.90
2018-10-18T22:46:06.120Z,99.90
2018-10-18T22:48:34.728Z,99.90
2018-10-18T22:51:04.429Z,99.90
2018-10-18T22:53:33.310Z,99.90
2018-10-18T22:56:03.346Z,99.90
2018-10-18T22:58:32.962Z,99.90
2018-10-18T23:01:02.194Z,99.90
2018-10-18T23:03:30.556Z,99.90
2018-10-18T23:05:58.963Z,99.90
2018-10-18T23:08:27.278Z,99.90
2018-10-18T23:10:55.764Z,99.90
2018-10-18T23:13:24.024Z,99.90
2018-10-18T23:15:52.811Z,99.90
2018-10-18T23:18:21.463Z,99.90
2018-10-18T23:20:50.275Z,99.90
2018-10-18T23:23:18.861Z,99.90
2018-10-18T23:25:47.104Z,99.90
2018-10-18T23:28:15.624Z,99.90
2018-10-18T23:30:44.297Z,99.90
2018-10-18T23:33:12.594Z,99.90
2018-10-18T23:35:41.790Z,99.90
2018-10-18T23:38:10.463Z,99.90
2018-10-18T23:40:38.812Z,99.90
2018-10-18T23:43:07.463Z,99.90
2018-10-18T23:45:38.367Z,99.90
2018-10-18T23:48:07.761Z,99.90
2018-10-18T23:50:36.713Z,99.90
2018-10-18T23:53:06.109Z,99.90
2018-10-18T23:55:34.856Z,99.90
2018-10-18T23:58:03.555Z,99.90
